Time;durP1;ratioP1;P1;durP2;ratioP2;P2;SDS_P1;SDS_P2;PMS_P1;PMS_P2;Temp;Humidity;BMP_temperature;BMP_pressure;BME280_temperature;BME280_humidity;BME280_pressure;Samples;Min_cycle;Max_cycle;Signal;HPM_P1;HPM_P2
2022/12/14 00:01:20;;;;;;;30.90;12.77;;;;;;;;;;4984562;28;20027;-64
2022/12/14 00:03:46;;;;;;;25.75;10.73;;;;;;;;;;4984173;28;20027;-64
2022/12/14 00:06:17;;;;;;;24.55;10.93;;;;;;;;;;4985852;28;20038;-63
2022/12/14 00:08:44;;;;;;;28.38;11.82;;;;;;;;;;4991741;28;20030;-68
2022/12/14 00:11:11;;;;;;;25.95;12.13;;;;;;;;;;4995517;28;20473;-68
2022/12/14 00:13:37;;;;;;;23.33;10.82;;;;;;;;;;4988330;28;20046;-67
2022/12/14 00:16:11;;;;;;;21.92;10.55;;;;;;;;;;4995494;28;20034;-67
2022/12/14 00:18:38;;;;;;;22.23;10.35;;;;;;;;;;4995432;28;20350;-67
2022/12/14 00:21:05;;;;;;;31.30;12.85;;;;;;;;;;4995240;28;20030;-67
2022/12/14 00:23:32;;;;;;;18.98;9.35;;;;;;;;;;4992333;28;20047;-67
2022/12/14 00:25:57;;;;;;;20.42;11.02;;;;;;;;;;4982120;28;20083;-67
2022/12/14 00:28:22;;;;;;;31.38;13.10;;;;;;;;;;4984178;28;20058;-65
2022/12/14 00:30:54;;;;;;;28.88;13.18;;;;;;;;;;4984035;28;20793;-68
2022/12/14 00:33:20;;;;;;;32.47;14.07;;;;;;;;;;4976786;28;20039;-63
2022/12/14 00:35:45;;;;;;;28.20;13.20;;;;;;;;;;4977845;28;20030;-63
2022/12/14 00:38:11;;;;;;;23.85;11.30;;;;;;;;;;4983205;28;20046;-65
2022/12/14 00:40:36;;;;;;;25.20;12.35;;;;;;;;;;4982839;28;20031;-63
2022/12/14 00:43:01;;;;;;;29.92;12.38;;;;;;;;;;4986266;28;20034;-63
2022/12/14 00:45:27;;;;;;;32.33;13.20;;;;;;;;;;4982317;28;20021;-63
2022/12/14 00:47:52;;;;;;;37.05;14.45;;;;;;;;;;4992328;28;20090;-63
2022/12/14 00:50:18;;;;;;;35.13;14.45;;;;;;;;;;4976104;28;20480;-63
2022/12/14 00:52:43;;;;;;;29.77;12.98;;;;;;;;;;4976026;28;20027;-63
2022/12/14 00:55:09;;;;;;;28.17;13.15;;;;;;;;;;4979080;28;20428;-63
2022/12/14 00:57:34;;;;;;;27.15;12.95;;;;;;;;;;4985773;28;20026;-64
2022/12/14 01:00:00;;;;;;;14.23;6.80;;;;;;;;;;4980881;28;20034;-65
2022/12/14 01:02:25;;;;;;;29.27;13.52;;;;;;;;;;4972981;28;20023;-63
2022/12/14 01:04:51;;;;;;;30.25;12.40;;;;;;;;;;4974011;28;20031;-63
2022/12/14 01:07:16;;;;;;;33.22;12.60;;;;;;;;;;4973824;28;20027;-63
2022/12/14 01:09:42;;;;;;;18.63;10.63;;;;;;;;;;4971672;28;20022;-63
2022/12/14 01:12:07;;;;;;;29.88;12.10;;;;;;;;;;4974241;28;20022;-63
2022/12/14 01:14:33;;;;;;;26.35;13.13;;;;;;;;;;4974111;28;20470;-63
2022/12/14 01:16:58;;;;;;;26.83;11.30;;;;;;;;;;4974092;28;20031;-63
2022/12/14 01:19:24;;;;;;;23.33;10.30;;;;;;;;;;4974096;28;20061;-63
2022/12/14 01:21:49;;;;;;;25.52;11.20;;;;;;;;;;4974229;28;20034;-63
2022/12/14 01:24:15;;;;;;;20.75;11.50;;;;;;;;;;4973715;28;20132;-63
2022/12/14 01:26:40;;;;;;;23.20;10.73;;;;;;;;;;4973841;28;20031;-63
2022/12/14 01:29:07;;;;;;;19.23;10.02;;;;;;;;;;4973983;28;20386;-63
2022/12/14 01:31:35;;;;;;;18.95;9.18;;;;;;;;;;4974083;28;20502;-63
2022/12/14 01:34:01;;;;;;;18.08;9.68;;;;;;;;;;4973639;28;20433;-63
2022/12/14 01:36:32;;;;;;;22.60;9.77;;;;;;;;;;4973899;28;20022;-63
2022/12/14 01:39:05;;;;;;;20.95;9.95;;;;;;;;;;4972286;28;20031;-62
2022/12/14 01:41:39;;;;;;;14.35;8.18;;;;;;;;;;4974271;28;20496;-63
2022/12/14 01:44:07;;;;;;;22.30;11.88;;;;;;;;;;4973049;28;20023;-62
2022/12/14 01:46:54;;;;;;;21.58;11.48;;;;;;;;;;4970786;28;20027;-63
2022/12/14 01:49:23;;;;;;;27.35;11.32;;;;;;;;;;4972085;28;20057;-63
2022/12/14 01:51:55;;;;;;;20.95;11.20;;;;;;;;;;4973249;28;20041;-62
2022/12/14 01:54:21;;;;;;;23.23;11.65;;;;;;;;;;4973468;28;20031;-62
2022/12/14 01:56:47;;;;;;;18.67;8.80;;;;;;;;;;4972906;28;20034;-63
2022/12/14 01:59:20;;;;;;;15.95;8.40;;;;;;;;;;4973603;28;20038;-63
2022/12/14 02:01:45;;;;;;;26.48;11.63;;;;;;;;;;4973250;28;20494;-63
2022/12/14 02:04:13;;;;;;;22.17;11.23;;;;;;;;;;4973108;28;20110;-62
2022/12/14 02:06:41;;;;;;;25.45;11.45;;;;;;;;;;4972486;28;20019;-63
2022/12/14 02:09:10;;;;;;;20.77;10.25;;;;;;;;;;4972499;28;20041;-67
2022/12/14 02:11:48;;;;;;;24.90;11.98;;;;;;;;;;4973210;28;20019;-64
2022/12/14 02:14:14;;;;;;;14.93;7.68;;;;;;;;;;4973333;28;20031;-68
2022/12/14 02:16:40;;;;;;;21.25;10.10;;;;;;;;;;4974230;28;20028;-68
2022/12/14 02:19:05;;;;;;;26.70;12.73;;;;;;;;;;4972947;28;20393;-67
2022/12/14 02:22:04;;;;;;;17.23;8.70;;;;;;;;;;4973130;28;20394;-69
2022/12/14 02:25:05;;;;;;;15.57;8.63;;;;;;;;;;4972029;28;20046;-67
2022/12/14 02:27:41;;;;;;;23.33;11.48;;;;;;;;;;4913147;29;20048;-68
2022/12/14 02:30:13;;;;;;;21.45;10.55;;;;;;;;;;4913295;29;20493;-68
2022/12/14 02:32:48;;;;;;;16.63;7.97;;;;;;;;;;4913218;29;20143;-66
2022/12/14 02:35:46;;;;;;;17.85;9.35;;;;;;;;;;4910205;29;20036;-67
2022/12/14 02:38:44;;;;;;;23.45;11.63;;;;;;;;;;4913519;29;20043;-66
2022/12/14 02:41:39;;;;;;;19.52;10.25;;;;;;;;;;4906282;29;20035;-64
2022/12/14 02:44:25;;;;;;;17.25;9.55;;;;;;;;;;4903934;29;20511;-64
2022/12/14 02:46:58;;;;;;;18.15;10.45;;;;;;;;;;4906670;29;20036;-66
2022/12/14 02:50:05;;;;;;;20.52;7.97;;;;;;;;;;4905397;29;20586;-63
2022/12/14 02:52:45;;;;;;;18.00;9.48;;;;;;;;;;4905774;29;20056;-68
2022/12/14 02:55:15;;;;;;;24.52;10.60;;;;;;;;;;4912569;29;20032;-63
2022/12/14 02:57:56;;;;;;;18.60;10.60;;;;;;;;;;4912803;29;20036;-63
2022/12/14 03:00:23;;;;;;;16.73;8.52;;;;;;;;;;4911924;29;20064;-63
2022/12/14 03:02:50;;;;;;;22.27;10.85;;;;;;;;;;4912493;29;20162;-66
2022/12/14 03:05:15;;;;;;;17.30;8.45;;;;;;;;;;4965341;28;20031;-63
2022/12/14 03:07:53;;;;;;;23.63;10.95;;;;;;;;;;4972339;28;20390;-64
2022/12/14 03:10:43;;;;;;;19.58;10.02;;;;;;;;;;4972156;28;20034;-63
2022/12/14 03:13:21;;;;;;;23.02;10.85;;;;;;;;;;4969902;28;20062;-64
2022/12/14 03:16:12;;;;;;;19.27;10.32;;;;;;;;;;4972308;28;20458;-63
2022/12/14 03:18:44;;;;;;;21.88;10.05;;;;;;;;;;4971508;28;20050;-64
2022/12/14 03:21:13;;;;;;;19.38;10.13;;;;;;;;;;4972140;28;20505;-63
2022/12/14 03:23:45;;;;;;;24.73;11.68;;;;;;;;;;4971764;28;20053;-64
2022/12/14 03:26:21;;;;;;;25.55;10.88;;;;;;;;;;4970009;28;20022;-65
2022/12/14 03:28:54;;;;;;;22.83;10.57;;;;;;;;;;4971543;28;20023;-64
2022/12/14 03:31:29;;;;;;;21.50;10.30;;;;;;;;;;4972077;28;20398;-64
2022/12/14 03:33:59;;;;;;;16.58;7.28;;;;;;;;;;4972213;28;20029;-64
2022/12/14 03:36:29;;;;;;;;;;;;;;;;;;4972413;28;20019;-64
2022/12/14 03:38:58;;;;;;;13.73;7.47;;;;;;;;;;4972015;28;20013;-64
2022/12/14 03:41:24;;;;;;;20.50;10.60;;;;;;;;;;4973362;28;20031;-64
2022/12/14 03:44:11;;;;;;;13.02;6.93;;;;;;;;;;4973248;28;20027;-64
2022/12/14 03:46:56;;;;;;;11.95;5.85;;;;;;;;;;4973493;28;20035;-63
2022/12/14 03:50:07;;;;;;;19.85;9.57;;;;;;;;;;4973656;28;20057;-64
2022/12/14 03:52:45;;;;;;;20.98;10.18;;;;;;;;;;4973305;28;20090;-65
2022/12/14 03:55:36;;;;;;;17.65;9.80;;;;;;;;;;4973481;28;20504;-64
2022/12/14 03:58:11;;;;;;;22.10;9.88;;;;;;;;;;4973330;28;20434;-64
2022/12/14 04:00:50;;;;;;;20.92;10.57;;;;;;;;;;4973347;28;20118;-65
2022/12/14 04:03:34;;;;;;;13.38;8.07;;;;;;;;;;4973596;28;20062;-64
2022/12/14 04:06:08;;;;;;;18.13;10.27;;;;;;;;;;4972996;28;20077;-64
2022/12/14 04:09:03;;;;;;;21.92;11.07;;;;;;;;;;4973400;28;20114;-64
2022/12/14 04:20:34;;;;;;;16.77;8.55;;;;;;;;;;4973086;28;20077;-68
2022/12/14 04:23:11;;;;;;;21.47;11.10;;;;;;;;;;4972885;28;20494;-69
2022/12/14 04:31:22;;;;;;;22.23;11.25;;;;;;;;;;4973156;28;20094;-66
2022/12/14 04:33:56;;;;;;;20.02;10.25;;;;;;;;;;4973162;28;20031;-67
2022/12/14 04:36:48;;;;;;;21.00;10.85;;;;;;;;;;4973118;28;20029;-69
2022/12/14 04:39:43;;;;;;;21.60;9.85;;;;;;;;;;4971886;28;20042;-69
2022/12/14 04:42:11;;;;;;;16.35;9.20;;;;;;;;;;4972215;28;20046;-64
2022/12/14 04:44:46;;;;;;;22.60;9.15;;;;;;;;;;4976187;28;20470;-67
2022/12/14 04:47:16;;;;;;;24.00;11.32;;;;;;;;;;4976441;28;20413;-68
2022/12/14 04:49:50;;;;;;;18.92;9.98;;;;;;;;;;4976424;28;20054;-68
2022/12/14 04:52:32;;;;;;;9.95;5.50;;;;;;;;;;4976412;28;20371;-68
2022/12/14 04:55:05;;;;;;;22.50;9.15;;;;;;;;;;4975973;28;20023;-69
2022/12/14 04:57:45;;;;;;;21.23;9.85;;;;;;;;;;4976375;28;20065;-69
2022/12/14 05:00:11;;;;;;;12.63;8.43;;;;;;;;;;4976093;28;20489;-68
2022/12/14 05:02:45;;;;;;;14.60;7.80;;;;;;;;;;4976091;28;20465;-64
2022/12/14 05:05:36;;;;;;;8.90;5.47;;;;;;;;;;4976228;28;20031;-65
2022/12/14 05:08:01;;;;;;;;;;;;;;;;;;4976116;28;20230;-64
2022/12/14 05:10:42;;;;;;;16.02;7.50;;;;;;;;;;4975896;28;20430;-64
2022/12/14 05:13:24;;;;;;;15.18;8.55;;;;;;;;;;4975980;28;20055;-64
2022/12/14 05:15:53;;;;;;;15.95;9.05;;;;;;;;;;4975775;28;20027;-65
2022/12/14 05:18:19;;;;;;;15.90;7.20;;;;;;;;;;4975872;28;20026;-65
2022/12/14 05:20:46;;;;;;;14.93;7.85;;;;;;;;;;4975368;28;20034;-64
2022/12/14 05:23:12;;;;;;;20.30;9.57;;;;;;;;;;4974284;28;20043;-64
2022/12/14 05:25:37;;;;;;;11.73;7.55;;;;;;;;;;4975584;28;20421;-64
2022/12/14 05:28:03;;;;;;;21.05;9.95;;;;;;;;;;4975654;28;20039;-64
2022/12/14 05:30:29;;;;;;;11.98;6.05;;;;;;;;;;4975566;28;20948;-63
2022/12/14 05:32:54;;;;;;;14.45;6.70;;;;;;;;;;4975580;28;20031;-63
2022/12/14 05:35:20;;;;;;;10.60;6.45;;;;;;;;;;4975557;28;20022;-64
2022/12/14 05:37:45;;;;;;;14.63;8.30;;;;;;;;;;4974404;28;20505;-64
2022/12/14 05:40:11;;;;;;;12.88;6.40;;;;;;;;;;4974863;28;20135;-64
2022/12/14 05:42:37;;;;;;;13.90;7.57;;;;;;;;;;4975320;28;20034;-64
2022/12/14 05:45:03;;;;;;;15.05;7.07;;;;;;;;;;4974052;28;20030;-63
2022/12/14 05:47:29;;;;;;;13.43;7.15;;;;;;;;;;4975165;28;20339;-64
2022/12/14 05:49:54;;;;;;;13.85;6.95;;;;;;;;;;4975327;28;20029;-64
2022/12/14 05:52:20;;;;;;;12.65;8.10;;;;;;;;;;4975064;28;20474;-64
2022/12/14 05:54:45;;;;;;;17.33;7.50;;;;;;;;;;4974877;28;20027;-64
2022/12/14 05:57:11;;;;;;;15.15;8.27;;;;;;;;;;4975214;28;20029;-65
2022/12/14 05:59:37;;;;;;;7.78;5.78;;;;;;;;;;4974806;28;20482;-64
2022/12/14 06:02:04;;;;;;;12.18;5.75;;;;;;;;;;4974833;28;20077;-64
2022/12/14 06:04:29;;;;;;;17.05;8.68;;;;;;;;;;4974822;28;20018;-64
2022/12/14 06:06:54;;;;;;;20.88;8.90;;;;;;;;;;4974385;28;20026;-64
2022/12/14 06:09:20;;;;;;;17.63;8.70;;;;;;;;;;4974492;28;20478;-64
2022/12/14 06:11:46;;;;;;;12.38;6.45;;;;;;;;;;4974642;28;20105;-65
2022/12/14 06:14:12;;;;;;;20.15;10.38;;;;;;;;;;4974522;28;20058;-64
2022/12/14 06:16:40;;;;;;;20.92;10.13;;;;;;;;;;4974392;28;20033;-64
2022/12/14 06:19:06;;;;;;;21.98;11.10;;;;;;;;;;4974341;28;20027;-68
2022/12/14 06:21:34;;;;;;;19.30;8.65;;;;;;;;;;4974469;28;20050;-68
2022/12/14 06:24:00;;;;;;;21.63;9.85;;;;;;;;;;4972469;28;20050;-69
2022/12/14 06:26:27;;;;;;;17.33;9.75;;;;;;;;;;4974318;28;20031;-65
2022/12/14 06:28:52;;;;;;;15.38;8.00;;;;;;;;;;4974108;28;20434;-64
2022/12/14 06:31:29;;;;;;;18.25;9.65;;;;;;;;;;4974391;28;20027;-64
2022/12/14 06:33:58;;;;;;;12.10;6.13;;;;;;;;;;4974574;28;20058;-64
2022/12/14 06:36:35;;;;;;;12.60;7.10;;;;;;;;;;4974166;28;20045;-67
2022/12/14 06:39:06;;;;;;;12.65;7.20;;;;;;;;;;4974126;28;20051;-64
2022/12/14 06:41:31;;;;;;;18.52;8.45;;;;;;;;;;4973978;28;20107;-64
2022/12/14 06:44:04;;;;;;;18.33;9.45;;;;;;;;;;4974403;28;20038;-63
2022/12/14 06:46:29;;;;;;;22.10;9.88;;;;;;;;;;4974216;28;20023;-63
2022/12/14 06:48:55;;;;;;;18.17;9.80;;;;;;;;;;4973962;28;20097;-63
2022/12/14 06:51:22;;;;;;;20.85;9.25;;;;;;;;;;4973981;28;20363;-63
2022/12/14 06:53:56;;;;;;;17.45;8.85;;;;;;;;;;4973846;28;20145;-63
2022/12/14 06:56:23;;;;;;;17.80;9.27;;;;;;;;;;4974091;28;20037;-64
2022/12/14 06:58:49;;;;;;;22.38;10.40;;;;;;;;;;4973691;28;20022;-63
2022/12/14 07:01:16;;;;;;;27.38;11.23;;;;;;;;;;4973973;28;20358;-63
2022/12/14 07:03:46;;;;;;;16.67;8.45;;;;;;;;;;4973421;28;20462;-64
2022/12/14 07:06:11;;;;;;;25.23;11.88;;;;;;;;;;4973167;28;20034;-63
2022/12/14 07:08:38;;;;;;;35.75;10.50;;;;;;;;;;4974152;28;20099;-64
2022/12/14 07:11:06;;;;;;;23.27;11.40;;;;;;;;;;4973666;28;20557;-63
2022/12/14 07:13:31;;;;;;;12.40;7.40;;;;;;;;;;4973817;28;20057;-63
2022/12/14 07:15:58;;;;;;;17.73;10.05;;;;;;;;;;4973304;28;20451;-64
2022/12/14 07:18:24;;;;;;;17.38;9.45;;;;;;;;;;4973788;28;20027;-64
2022/12/14 07:21:01;;;;;;;11.38;5.50;;;;;;;;;;4973246;28;20089;-64
2022/12/14 07:23:28;;;;;;;18.08;8.57;;;;;;;;;;4973471;28;20055;-64
2022/12/14 07:26:00;;;;;;;20.00;9.25;;;;;;;;;;4973771;28;20046;-66
2022/12/14 07:28:27;;;;;;;20.38;9.75;;;;;;;;;;4973404;28;20110;-63
2022/12/14 07:30:56;;;;;;;19.25;8.75;;;;;;;;;;4973594;28;20501;-63
2022/12/14 07:33:22;;;;;;;22.95;10.35;;;;;;;;;;4973676;28;20031;-63
2022/12/14 07:35:47;;;;;;;14.48;8.23;;;;;;;;;;4972930;28;20150;-63
2022/12/14 07:38:13;;;;;;;16.90;8.93;;;;;;;;;;4973438;28;20483;-63
2022/12/14 07:40:38;;;;;;;15.57;8.70;;;;;;;;;;4973331;28;20022;-66
2022/12/14 07:43:04;;;;;;;14.48;6.93;;;;;;;;;;4973547;28;20507;-65
2022/12/14 07:45:29;;;;;;;21.95;10.48;;;;;;;;;;4973495;28;20086;-64
2022/12/14 07:47:56;;;;;;;20.70;9.90;;;;;;;;;;4973481;28;20034;-64
2022/12/14 07:50:21;;;;;;;15.75;8.02;;;;;;;;;;4972910;28;20043;-65
2022/12/14 07:52:47;;;;;;;14.82;8.52;;;;;;;;;;4973345;28;20387;-64
2022/12/14 07:55:12;;;;;;;18.45;8.27;;;;;;;;;;4973420;28;20449;-63
2022/12/14 07:57:38;;;;;;;24.65;9.30;;;;;;;;;;4973410;28;20038;-64
2022/12/14 08:00:03;;;;;;;10.85;6.55;;;;;;;;;;4972096;28;20041;-64
2022/12/14 08:02:29;;;;;;;15.20;8.27;;;;;;;;;;4973301;28;20026;-64
2022/12/14 08:04:57;;;;;;;14.07;8.60;;;;;;;;;;4972823;28;20067;-63
2022/12/14 08:07:23;;;;;;;12.65;7.50;;;;;;;;;;4973480;28;20503;-65
2022/12/14 08:09:48;;;;;;;17.75;6.50;;;;;;;;;;4973338;28;20030;-64
2022/12/14 08:12:14;;;;;;;19.00;8.45;;;;;;;;;;4973127;28;20133;-67
2022/12/14 08:14:39;;;;;;;16.35;8.77;;;;;;;;;;4971945;28;20023;-63
2022/12/14 08:17:04;;;;;;;16.15;7.60;;;;;;;;;;4976627;28;20050;-62
2022/12/14 08:19:30;;;;;;;5.85;3.88;;;;;;;;;;4976697;28;20465;-63
2022/12/14 08:21:55;;;;;;;21.33;9.57;;;;;;;;;;4976948;28;20050;-65
2022/12/14 08:24:21;;;;;;;20.40;7.63;;;;;;;;;;4976439;28;20132;-68
2022/12/14 08:26:46;;;;;;;15.77;8.38;;;;;;;;;;4976631;28;20042;-68
2022/12/14 08:29:13;;;;;;;19.80;9.98;;;;;;;;;;4976787;28;20458;-67
2022/12/14 08:31:39;;;;;;;22.92;9.60;;;;;;;;;;4976794;28;20054;-68
2022/12/14 08:34:04;;;;;;;9.30;6.57;;;;;;;;;;4976466;28;20109;-68
2022/12/14 08:36:32;;;;;;;21.17;10.70;;;;;;;;;;4976617;28;20490;-68
2022/12/14 08:39:03;;;;;;;16.50;8.07;;;;;;;;;;4976343;28;20085;-67
2022/12/14 08:41:29;;;;;;;19.20;8.52;;;;;;;;;;4976556;28;20086;-68
2022/12/14 08:43:57;;;;;;;22.13;9.45;;;;;;;;;;4976548;28;20038;-68
2022/12/14 08:46:24;;;;;;;14.88;9.00;;;;;;;;;;4975881;28;20466;-68
2022/12/14 08:48:51;;;;;;;16.88;9.02;;;;;;;;;;4976008;28;20058;-68
2022/12/14 08:51:17;;;;;;;19.80;9.23;;;;;;;;;;4976333;28;20081;-64
2022/12/14 08:53:43;;;;;;;15.57;7.47;;;;;;;;;;4976361;28;20485;-64
2022/12/14 08:56:11;;;;;;;10.18;6.82;;;;;;;;;;4976310;28;20027;-63
2022/12/14 08:58:38;;;;;;;15.70;8.35;;;;;;;;;;4976092;28;20023;-63
2022/12/14 09:01:06;;;;;;;9.15;5.22;;;;;;;;;;4976021;28;20057;-64
2022/12/14 09:03:32;;;;;;;18.38;7.85;;;;;;;;;;4975967;28;20037;-64
2022/12/14 09:06:06;;;;;;;14.50;7.63;;;;;;;;;;4976007;28;20034;-64
2022/12/14 09:08:33;;;;;;;14.90;8.60;;;;;;;;;;4975956;28;20117;-63
2022/12/14 09:10:59;;;;;;;23.27;9.90;;;;;;;;;;4975936;28;20493;-64
2022/12/14 09:13:25;;;;;;;11.27;7.03;;;;;;;;;;4976760;28;20026;-64
2022/12/14 09:16:12;;;;;;;12.85;7.30;;;;;;;;;;4975655;28;20031;-63
2022/12/14 09:18:37;;;;;;;9.75;6.65;;;;;;;;;;4976033;28;20031;-64
2022/12/14 09:21:04;;;;;;;19.88;10.10;;;;;;;;;;4975513;28;20045;-69
2022/12/14 09:23:31;;;;;;;18.27;9.40;;;;;;;;;;4975126;28;20047;-66
2022/12/14 09:26:09;;;;;;;22.52;10.70;;;;;;;;;;4975855;28;20130;-68
2022/12/14 09:28:36;;;;;;;27.70;11.52;;;;;;;;;;4974039;28;20026;-68
2022/12/14 09:31:05;;;;;;;16.30;8.30;;;;;;;;;;4974219;28;20034;-69
2022/12/14 09:33:31;;;;;;;11.13;6.47;;;;;;;;;;4974885;28;20027;-66
2022/12/14 09:36:09;;;;;;;17.65;9.05;;;;;;;;;;4982204;28;20330;-67
2022/12/14 09:38:36;;;;;;;17.73;8.90;;;;;;;;;;4965510;28;20062;-66
2022/12/14 09:41:05;;;;;;;15.45;8.05;;;;;;;;;;4975322;28;20088;-68
2022/12/14 09:43:33;;;;;;;20.58;9.77;;;;;;;;;;4975444;28;20066;-65
2022/12/14 09:46:20;;;;;;;14.45;8.63;;;;;;;;;;4974571;28;20050;-67
2022/12/14 09:48:47;;;;;;;19.00;7.15;;;;;;;;;;4974575;28;20030;-66
2022/12/14 09:51:15;;;;;;;23.08;10.15;;;;;;;;;;4975348;28;20037;-67
2022/12/14 09:53:42;;;;;;;19.90;10.40;;;;;;;;;;4975242;28;20475;-64
2022/12/14 09:56:17;;;;;;;19.02;10.65;;;;;;;;;;4975201;28;20430;-65
2022/12/14 09:58:53;;;;;;;9.82;5.55;;;;;;;;;;4975140;28;20099;-63
2022/12/14 10:01:22;;;;;;;22.98;10.45;;;;;;;;;;4974928;28;20470;-64
2022/12/14 10:04:22;;;;;;;15.77;8.30;;;;;;;;;;4975310;28;20081;-63
2022/12/14 10:07:06;;;;;;;19.33;9.85;;;;;;;;;;4974868;28;20038;-62
2022/12/14 10:09:49;;;;;;;9.48;5.90;;;;;;;;;;4975036;28;20035;-62
2022/12/14 10:12:33;;;;;;;17.27;8.57;;;;;;;;;;4975090;28;20376;-65
2022/12/14 10:15:17;;;;;;;17.40;9.95;;;;;;;;;;4974545;28;20022;-63
2022/12/14 10:18:02;;;;;;;18.58;8.45;;;;;;;;;;4974860;28;20381;-63
2022/12/14 10:20:53;;;;;;;16.35;7.80;;;;;;;;;;4974623;28;20485;-68
2022/12/14 10:23:22;;;;;;;22.10;9.00;;;;;;;;;;4974453;28;20129;-64
2022/12/14 10:25:51;;;;;;;13.88;7.95;;;;;;;;;;4974048;28;20035;-65
2022/12/14 10:28:38;;;;;;;16.63;7.35;;;;;;;;;;4980992;28;20027;-66
2022/12/14 10:31:10;;;;;;;17.20;8.48;;;;;;;;;;4985556;28;20513;-64
2022/12/14 10:33:39;;;;;;;15.55;7.25;;;;;;;;;;4993579;28;20030;-65
2022/12/14 10:36:20;;;;;;;19.17;10.10;;;;;;;;;;4974915;28;20029;-67
2022/12/14 10:38:58;;;;;;;10.60;5.82;;;;;;;;;;4973461;28;20107;-68
2022/12/14 10:41:38;;;;;;;13.43;7.22;;;;;;;;;;4972397;28;20096;-68
2022/12/14 10:44:29;;;;;;;20.48;10.05;;;;;;;;;;4973607;28;20031;-68
2022/12/14 10:47:04;;;;;;;20.25;8.95;;;;;;;;;;4973853;28;20031;-68
2022/12/14 10:49:43;;;;;;;21.10;10.10;;;;;;;;;;4974034;28;20026;-65
2022/12/14 10:52:16;;;;;;;18.20;8.88;;;;;;;;;;4974327;28;20418;-63
2022/12/14 10:54:53;;;;;;;18.80;9.30;;;;;;;;;;4974102;28;20034;-64
2022/12/14 10:57:25;;;;;;;17.65;9.52;;;;;;;;;;4973944;28;20082;-63
2022/12/14 10:59:52;;;;;;;20.15;11.20;;;;;;;;;;4973933;28;20077;-63
2022/12/14 11:02:20;;;;;;;24.23;11.25;;;;;;;;;;4973294;28;20038;-63
2022/12/14 11:04:50;;;;;;;14.48;8.10;;;;;;;;;;4973913;28;20382;-63
2022/12/14 11:07:18;;;;;;;16.67;9.03;;;;;;;;;;4973542;28;20467;-63
2022/12/14 11:09:44;;;;;;;9.48;6.25;;;;;;;;;;4973996;28;20263;-63
2022/12/14 11:12:12;;;;;;;19.35;10.07;;;;;;;;;;4973667;28;20385;-64
2022/12/14 11:14:53;;;;;;;11.35;6.40;;;;;;;;;;4973573;28;20031;-64
2022/12/14 11:17:39;;;;;;;8.25;6.45;;;;;;;;;;4972624;28;20117;-63
2022/12/14 11:20:12;;;;;;;19.00;10.00;;;;;;;;;;4973684;28;20481;-65
2022/12/14 11:22:52;;;;;;;10.55;6.45;;;;;;;;;;4973674;28;20042;-63
2022/12/14 11:25:37;;;;;;;12.80;7.00;;;;;;;;;;4973552;28;20027;-65
2022/12/14 11:28:25;;;;;;;22.67;9.80;;;;;;;;;;4973259;28;20019;-63
2022/12/14 11:31:07;;;;;;;22.55;9.85;;;;;;;;;;4973126;28;20073;-63
2022/12/14 11:34:23;;;;;;;17.88;7.75;;;;;;;;;;4973633;28;20030;-63
2022/12/14 11:36:49;;;;;;;22.05;9.38;;;;;;;;;;4952078;29;20027;-64
2022/12/14 11:39:20;;;;;;;12.02;6.40;;;;;;;;;;4952024;29;20485;-62
2022/12/14 11:41:48;;;;;;;19.80;10.45;;;;;;;;;;4951864;29;20118;-64
2022/12/14 11:44:14;;;;;;;20.77;9.80;;;;;;;;;;4952019;28;20046;-64
2022/12/14 11:46:57;;;;;;;14.95;8.90;;;;;;;;;;4952149;29;20055;-63
2022/12/14 11:49:34;;;;;;;12.40;5.85;;;;;;;;;;4951623;29;20035;-64
2022/12/14 11:52:09;;;;;;;19.58;9.45;;;;;;;;;;4955715;29;20132;-64
2022/12/14 11:54:40;;;;;;;9.32;6.50;;;;;;;;;;4955939;29;20039;-63
2022/12/14 11:57:11;;;;;;;20.95;9.73;;;;;;;;;;4939665;29;20468;-63
2022/12/14 12:00:20;;;;;;;20.67;8.75;;;;;;;;;;4955860;29;20553;-63
2022/12/14 12:03:15;;;;;;;21.23;10.43;;;;;;;;;;4955676;29;20497;-64
2022/12/14 12:05:42;;;;;;;22.63;12.20;;;;;;;;;;4898641;29;20566;-63
2022/12/14 12:08:26;;;;;;;21.15;10.20;;;;;;;;;;4898107;29;20051;-63
2022/12/14 12:10:55;;;;;;;21.73;10.57;;;;;;;;;;4898368;29;20417;-63
2022/12/14 12:13:26;;;;;;;24.85;10.55;;;;;;;;;;4898717;29;20028;-63
2022/12/14 12:15:59;;;;;;;25.77;12.75;;;;;;;;;;4898485;29;20537;-63
2022/12/14 12:18:39;;;;;;;17.33;7.15;;;;;;;;;;4898609;29;20507;-64
2022/12/14 12:21:21;;;;;;;14.60;7.70;;;;;;;;;;4898562;29;20072;-68
2022/12/14 12:23:52;;;;;;;19.67;8.95;;;;;;;;;;4897371;29;20048;-64
2022/12/14 12:26:38;;;;;;;34.47;10.98;;;;;;;;;;4897966;29;20036;-69
2022/12/14 12:29:23;;;;;;;23.50;10.52;;;;;;;;;;4882457;29;20404;-63
2022/12/14 12:32:24;;;;;;;23.75;10.75;;;;;;;;;;4897619;29;20464;-65
2022/12/14 12:35:12;;;;;;;17.13;6.63;;;;;;;;;;4897969;29;20550;-64
2022/12/14 12:37:50;;;;;;;16.00;8.43;;;;;;;;;;4898166;29;20048;-68
2022/12/14 12:40:21;;;;;;;24.00;12.18;;;;;;;;;;4897912;29;20033;-64
2022/12/14 12:42:55;;;;;;;17.52;7.93;;;;;;;;;;4941904;28;20458;-70
2022/12/14 12:45:46;;;;;;;18.15;6.90;;;;;;;;;;4974307;28;20043;-68
2022/12/14 12:48:20;;;;;;;;;;;;;;;;;;4967784;28;20041;-70
2022/12/14 12:50:50;;;;;;;17.65;8.85;;;;;;;;;;4974026;28;20480;-64
2022/12/14 12:53:20;;;;;;;16.38;6.95;;;;;;;;;;4974172;28;20041;-67
2022/12/14 12:56:02;;;;;;;28.88;12.52;;;;;;;;;;4974059;28;20513;-64
2022/12/14 12:58:31;;;;;;;24.80;12.10;;;;;;;;;;4974168;28;20110;-68
2022/12/14 13:01:03;;;;;;;29.98;12.90;;;;;;;;;;4973811;28;20039;-68
2022/12/14 13:03:36;;;;;;;22.17;12.15;;;;;;;;;;4956918;28;20045;-68
2022/12/14 13:06:39;;;;;;;20.77;9.10;;;;;;;;;;4973412;28;20490;-68
2022/12/14 13:09:24;;;;;;;13.82;7.50;;;;;;;;;;4915623;29;20092;-67
2022/12/14 13:11:50;;;;;;;19.10;7.78;;;;;;;;;;4907046;29;20525;-68
2022/12/14 13:14:42;;;;;;;8.32;5.35;;;;;;;;;;4905807;29;20036;-68
2022/12/14 13:17:22;;;;;;;15.10;7.90;;;;;;;;;;4905461;29;20025;-68
2022/12/14 13:19:50;;;;;;;19.08;9.05;;;;;;;;;;4903236;29;20389;-68
2022/12/14 13:22:23;;;;;;;31.27;14.85;;;;;;;;;;4907843;29;20119;-68
2022/12/14 13:24:50;;;;;;;29.52;12.90;;;;;;;;;;4903074;29;20064;-69
2022/12/14 13:27:15;;;;;;;21.92;9.07;;;;;;;;;;4897108;29;20044;-68
2022/12/14 13:30:13;;;;;;;29.85;13.85;;;;;;;;;;4897233;29;20048;-69
2022/12/14 13:32:50;;;;;;;19.60;8.82;;;;;;;;;;4897086;29;20052;-69
2022/12/14 13:35:15;;;;;;;16.88;8.85;;;;;;;;;;4896903;29;20044;-67
2022/12/14 13:37:44;;;;;;;24.10;11.00;;;;;;;;;;4896863;29;20025;-66
2022/12/14 13:40:15;;;;;;;24.83;11.98;;;;;;;;;;4896586;29;20115;-68
2022/12/14 13:42:58;;;;;;;20.58;9.10;;;;;;;;;;4896955;29;20029;-68
2022/12/14 13:45:31;;;;;;;18.23;10.13;;;;;;;;;;4926829;28;20043;-69
2022/12/14 13:47:57;;;;;;;18.33;10.60;;;;;;;;;;4975279;28;20031;-66
2022/12/14 13:50:29;;;;;;;30.58;14.63;;;;;;;;;;4974902;28;20085;-67
2022/12/14 13:53:02;;;;;;;32.67;15.63;;;;;;;;;;4974751;28;20170;-69
2022/12/14 13:55:37;;;;;;;32.10;14.73;;;;;;;;;;4975178;28;20109;-66
2022/12/14 13:58:13;;;;;;;28.63;12.80;;;;;;;;;;4974941;28;20031;-65
2022/12/14 14:00:45;;;;;;;24.45;10.43;;;;;;;;;;4974714;28;20357;-66
2022/12/14 14:03:35;;;;;;;16.08;9.60;;;;;;;;;;4974935;28;20051;-66
2022/12/14 14:06:01;;;;;;;;;;;;;;;;;;4975023;28;20030;-66
2022/12/14 14:08:32;;;;;;;15.18;8.18;;;;;;;;;;4974775;28;19918;-66
2022/12/14 14:11:00;;;;;;;14.68;7.47;;;;;;;;;;4974624;28;20058;-65
2022/12/14 14:13:26;;;;;;;28.45;12.57;;;;;;;;;;4974031;28;20037;-65
2022/12/14 14:16:03;;;;;;;36.42;15.82;;;;;;;;;;4974565;28;20019;-67
2022/12/14 14:18:35;;;;;;;17.38;10.27;;;;;;;;;;4974693;28;20065;-67
2022/12/14 14:21:21;;;;;;;31.38;15.52;;;;;;;;;;4974051;28;20177;-66
2022/12/14 14:23:55;;;;;;;30.73;14.55;;;;;;;;;;4974091;28;20050;-65
2022/12/14 14:26:33;;;;;;;27.75;14.13;;;;;;;;;;4974478;28;20035;-65
2022/12/14 14:29:22;;;;;;;27.55;14.82;;;;;;;;;;4974303;28;20027;-65
2022/12/14 14:31:52;;;;;;;24.17;12.02;;;;;;;;;;4974320;28;20505;-65
2022/12/14 14:34:29;;;;;;;39.63;17.02;;;;;;;;;;4974373;28;20100;-66
2022/12/14 14:36:55;;;;;;;32.38;14.02;;;;;;;;;;4974027;28;20055;-65
2022/12/14 14:39:31;;;;;;;25.92;11.43;;;;;;;;;;4974300;28;20081;-65
2022/12/14 14:41:58;;;;;;;38.60;16.45;;;;;;;;;;4974433;28;20066;-65
2022/12/14 14:44:39;;;;;;;32.63;16.50;;;;;;;;;;4974105;28;20090;-65
2022/12/14 14:47:21;;;;;;;38.75;16.48;;;;;;;;;;4973741;28;20058;-65
2022/12/14 14:50:17;;;;;;;22.67;11.00;;;;;;;;;;4973788;28;20483;-65
2022/12/14 14:52:43;;;;;;;32.22;15.82;;;;;;;;;;4970666;28;20052;-69
2022/12/14 14:55:27;;;;;;;35.65;14.35;;;;;;;;;;4973405;28;20490;-65
2022/12/14 14:58:02;;;;;;;37.00;16.55;;;;;;;;;;4974113;28;20054;-65
2022/12/14 15:00:31;;;;;;;21.50;11.20;;;;;;;;;;4988789;28;20401;-65
2022/12/14 15:02:57;;;;;;;24.20;12.80;;;;;;;;;;4993298;28;20041;-65
2022/12/14 15:05:30;;;;;;;26.77;13.20;;;;;;;;;;4993158;28;20026;-67
2022/12/14 15:07:57;;;;;;;42.13;18.05;;;;;;;;;;4993245;28;20033;-67
2022/12/14 15:10:34;;;;;;;27.70;14.88;;;;;;;;;;4992896;28;20022;-68
2022/12/14 15:13:02;;;;;;;36.83;18.17;;;;;;;;;;4993046;28;20109;-67